sensor_id;sensor_type;location;lat;lon;timestamp;P1;durP1;ratioP1;P2;durP2;ratioP2
26040;SDS011;13816;53.628;9.950;2022-10-16T00:01:31;11.87;;;9.63;;
26040;SDS011;13816;53.628;9.950;2022-10-16T00:03:57;14.83;;;9.90;;
26040;SDS011;13816;53.628;9.950;2022-10-16T00:06:24;16.40;;;10.53;;
26040;SDS011;13816;53.628;9.950;2022-10-16T00:08:51;13.70;;;10.10;;
26040;SDS011;13816;53.628;9.950;2022-10-16T00:11:18;14.80;;;10.13;;
26040;SDS011;13816;53.628;9.950;2022-10-16T00:13:45;9.57;;;8.17;;
26040;SDS011;13816;53.628;9.950;2022-10-16T00:16:12;9.63;;;8.07;;
26040;SDS011;13816;53.628;9.950;2022-10-16T00:18:39;10.70;;;8.20;;
26040;SDS011;13816;53.628;9.950;2022-10-16T00:21:06;13.27;;;7.97;;
26040;SDS011;13816;53.628;9.950;2022-10-16T00:23:32;11.23;;;8.17;;
26040;SDS011;13816;53.628;9.950;2022-10-16T00:26:00;9.07;;;7.03;;
26040;SDS011;13816;53.628;9.950;2022-10-16T00:28:26;12.70;;;8.30;;
26040;SDS011;13816;53.628;9.950;2022-10-16T00:30:53;11.03;;;7.90;;
26040;SDS011;13816;53.628;9.950;2022-10-16T00:33:19;16.17;;;8.37;;
26040;SDS011;13816;53.628;9.950;2022-10-16T00:35:45;10.20;;;7.00;;
26040;SDS011;13816;53.628;9.950;2022-10-16T00:38:11;13.33;;;7.47;;
26040;SDS011;13816;53.628;9.950;2022-10-16T00:40:37;8.13;;;5.97;;
26040;SDS011;13816;53.628;9.950;2022-10-16T00:45:48;7.20;;;5.30;;
26040;SDS011;13816;53.628;9.950;2022-10-16T00:48:15;12.40;;;5.73;;
26040;SDS011;13816;53.628;9.950;2022-10-16T00:50:41;10.03;;;5.27;;
26040;SDS011;13816;53.628;9.950;2022-10-16T00:53:08;9.07;;;4.93;;
26040;SDS011;13816;53.628;9.950;2022-10-16T00:55:36;11.53;;;5.20;;
26040;SDS011;13816;53.628;9.950;2022-10-16T00:58:02;10.83;;;4.47;;
26040;SDS011;13816;53.628;9.950;2022-10-16T01:00:28;10.20;;;4.60;;
26040;SDS011;13816;53.628;9.950;2022-10-16T01:02:55;4.30;;;3.80;;
26040;SDS011;13816;53.628;9.950;2022-10-16T01:05:22;6.27;;;4.27;;
26040;SDS011;13816;53.628;9.950;2022-10-16T01:08:00;14.83;;;4.03;;
26040;SDS011;13816;53.628;9.950;2022-10-16T01:10:34;7.87;;;3.70;;
26040;SDS011;13816;53.628;9.950;2022-10-16T01:13:08;7.47;;;3.80;;
26040;SDS011;13816;53.628;9.950;2022-10-16T01:15:37;8.13;;;4.27;;
26040;SDS011;13816;53.628;9.950;2022-10-16T01:20:44;13.00;;;3.80;;
26040;SDS011;13816;53.628;9.950;2022-10-16T01:23:21;8.73;;;3.97;;
26040;SDS011;13816;53.628;9.950;2022-10-16T01:28:24;6.20;;;3.00;;
26040;SDS011;13816;53.628;9.950;2022-10-16T01:30:52;14.93;;;3.40;;
26040;SDS011;13816;53.628;9.950;2022-10-16T01:33:28;9.20;;;3.80;;
26040;SDS011;13816;53.628;9.950;2022-10-16T01:35:57;6.63;;;3.10;;
26040;SDS011;13816;53.628;9.950;2022-10-16T01:38:37;6.40;;;3.60;;
26040;SDS011;13816;53.628;9.950;2022-10-16T01:41:09;9.60;;;3.93;;
26040;SDS011;13816;53.628;9.950;2022-10-16T01:43:40;8.90;;;3.03;;
26040;SDS011;13816;53.628;9.950;2022-10-16T01:46:06;5.47;;;3.10;;
26040;SDS011;13816;53.628;9.950;2022-10-16T01:48:33;8.37;;;3.20;;
26040;SDS011;13816;53.628;9.950;2022-10-16T01:51:06;5.47;;;3.10;;
26040;SDS011;13816;53.628;9.950;2022-10-16T01:53:32;5.50;;;3.33;;
26040;SDS011;13816;53.628;9.950;2022-10-16T01:55:58;5.63;;;3.07;;
26040;SDS011;13816;53.628;9.950;2022-10-16T01:58:27;12.63;;;3.00;;
26040;SDS011;13816;53.628;9.950;2022-10-16T02:00:55;6.17;;;2.70;;
26040;SDS011;13816;53.628;9.950;2022-10-16T02:03:22;4.63;;;2.80;;
26040;SDS011;13816;53.628;9.950;2022-10-16T02:05:52;4.90;;;2.83;;
26040;SDS011;13816;53.628;9.950;2022-10-16T02:08:19;4.37;;;2.40;;
26040;SDS011;13816;53.628;9.950;2022-10-16T02:10:46;11.90;;;3.23;;
26040;SDS011;13816;53.628;9.950;2022-10-16T02:13:13;4.40;;;3.33;;
26040;SDS011;13816;53.628;9.950;2022-10-16T02:15:40;5.93;;;3.10;;
26040;SDS011;13816;53.628;9.950;2022-10-16T02:18:06;3.40;;;2.17;;
26040;SDS011;13816;53.628;9.950;2022-10-16T02:20:34;4.53;;;2.80;;
26040;SDS011;13816;53.628;9.950;2022-10-16T02:23:02;7.43;;;2.60;;
26040;SDS011;13816;53.628;9.950;2022-10-16T02:25:35;8.63;;;2.50;;
26040;SDS011;13816;53.628;9.950;2022-10-16T02:28:07;8.57;;;2.90;;
26040;SDS011;13816;53.628;9.950;2022-10-16T02:30:48;5.57;;;2.53;;
26040;SDS011;13816;53.628;9.950;2022-10-16T02:33:16;5.00;;;2.30;;
26040;SDS011;13816;53.628;9.950;2022-10-16T02:35:43;7.33;;;2.57;;
26040;SDS011;13816;53.628;9.950;2022-10-16T02:38:10;4.63;;;2.53;;
26040;SDS011;13816;53.628;9.950;2022-10-16T02:40:36;6.13;;;2.50;;
26040;SDS011;13816;53.628;9.950;2022-10-16T02:43:03;7.80;;;3.40;;
26040;SDS011;13816;53.628;9.950;2022-10-16T02:45:30;6.80;;;1.90;;
26040;SDS011;13816;53.628;9.950;2022-10-16T02:47:56;3.27;;;2.07;;
26040;SDS011;13816;53.628;9.950;2022-10-16T02:50:22;6.17;;;2.40;;
26040;SDS011;13816;53.628;9.950;2022-10-16T02:52:50;10.40;;;3.50;;
26040;SDS011;13816;53.628;9.950;2022-10-16T02:55:16;7.70;;;3.00;;
26040;SDS011;13816;53.628;9.950;2022-10-16T02:57:42;5.73;;;2.07;;
26040;SDS011;13816;53.628;9.950;2022-10-16T03:00:09;6.30;;;2.37;;
26040;SDS011;13816;53.628;9.950;2022-10-16T03:02:37;4.63;;;2.00;;
26040;SDS011;13816;53.628;9.950;2022-10-16T03:05:03;4.50;;;2.33;;
26040;SDS011;13816;53.628;9.950;2022-10-16T03:07:29;5.37;;;2.90;;
26040;SDS011;13816;53.628;9.950;2022-10-16T03:09:55;7.60;;;2.47;;
26040;SDS011;13816;53.628;9.950;2022-10-16T03:12:21;4.27;;;2.60;;
26040;SDS011;13816;53.628;9.950;2022-10-16T03:14:47;5.13;;;2.23;;
26040;SDS011;13816;53.628;9.950;2022-10-16T03:17:13;3.43;;;2.30;;
26040;SDS011;13816;53.628;9.950;2022-10-16T03:19:41;4.20;;;2.40;;
26040;SDS011;13816;53.628;9.950;2022-10-16T03:22:07;5.50;;;1.90;;
26040;SDS011;13816;53.628;9.950;2022-10-16T03:24:33;15.27;;;2.67;;
26040;SDS011;13816;53.628;9.950;2022-10-16T03:27:00;6.07;;;2.33;;
26040;SDS011;13816;53.628;9.950;2022-10-16T03:29:26;3.13;;;2.10;;
26040;SDS011;13816;53.628;9.950;2022-10-16T03:31:54;8.30;;;2.10;;
26040;SDS011;13816;53.628;9.950;2022-10-16T03:34:20;4.40;;;1.77;;
26040;SDS011;13816;53.628;9.950;2022-10-16T03:36:46;6.33;;;2.03;;
26040;SDS011;13816;53.628;9.950;2022-10-16T03:39:12;9.53;;;2.30;;
26040;SDS011;13816;53.628;9.950;2022-10-16T03:41:38;7.10;;;1.90;;
26040;SDS011;13816;53.628;9.950;2022-10-16T03:44:06;7.67;;;1.80;;
26040;SDS011;13816;53.628;9.950;2022-10-16T03:46:32;4.53;;;2.30;;
26040;SDS011;13816;53.628;9.950;2022-10-16T03:48:58;4.30;;;2.00;;
26040;SDS011;13816;53.628;9.950;2022-10-16T03:51:24;9.57;;;2.47;;
26040;SDS011;13816;53.628;9.950;2022-10-16T03:53:50;4.60;;;2.20;;
26040;SDS011;13816;53.628;9.950;2022-10-16T03:56:16;9.20;;;2.27;;
26040;SDS011;13816;53.628;9.950;2022-10-16T03:58:42;4.17;;;1.97;;
26040;SDS011;13816;53.628;9.950;2022-10-16T04:01:08;6.40;;;2.00;;
26040;SDS011;13816;53.628;9.950;2022-10-16T04:03:34;3.40;;;1.80;;
26040;SDS011;13816;53.628;9.950;2022-10-16T04:06:00;7.47;;;2.50;;
26040;SDS011;13816;53.628;9.950;2022-10-16T04:08:26;3.27;;;1.93;;
26040;SDS011;13816;53.628;9.950;2022-10-16T04:10:53;3.83;;;2.10;;
26040;SDS011;13816;53.628;9.950;2022-10-16T04:13:19;5.00;;;2.43;;
26040;SDS011;13816;53.628;9.950;2022-10-16T04:15:45;7.00;;;1.97;;
26040;SDS011;13816;53.628;9.950;2022-10-16T04:18:11;8.13;;;1.97;;
26040;SDS011;13816;53.628;9.950;2022-10-16T04:20:37;7.70;;;2.63;;
26040;SDS011;13816;53.628;9.950;2022-10-16T04:23:03;9.53;;;2.27;;
26040;SDS011;13816;53.628;9.950;2022-10-16T04:25:30;6.43;;;2.53;;
26040;SDS011;13816;53.628;9.950;2022-10-16T04:27:56;4.10;;;1.77;;
26040;SDS011;13816;53.628;9.950;2022-10-16T04:30:22;8.63;;;2.70;;
26040;SDS011;13816;53.628;9.950;2022-10-16T04:32:49;4.87;;;2.07;;
26040;SDS011;13816;53.628;9.950;2022-10-16T04:35:15;6.30;;;2.03;;
26040;SDS011;13816;53.628;9.950;2022-10-16T04:37:42;6.00;;;1.93;;
26040;SDS011;13816;53.628;9.950;2022-10-16T04:40:08;6.07;;;2.40;;
26040;SDS011;13816;53.628;9.950;2022-10-16T04:42:34;11.40;;;2.53;;
26040;SDS011;13816;53.628;9.950;2022-10-16T04:45:00;5.50;;;2.10;;
26040;SDS011;13816;53.628;9.950;2022-10-16T04:47:26;3.53;;;1.97;;
26040;SDS011;13816;53.628;9.950;2022-10-16T04:49:52;3.27;;;2.00;;
26040;SDS011;13816;53.628;9.950;2022-10-16T04:52:18;4.80;;;2.23;;
26040;SDS011;13816;53.628;9.950;2022-10-16T04:54:46;8.57;;;1.80;;
26040;SDS011;13816;53.628;9.950;2022-10-16T04:57:12;8.63;;;2.40;;
26040;SDS011;13816;53.628;9.950;2022-10-16T04:59:38;6.60;;;2.50;;
26040;SDS011;13816;53.628;9.950;2022-10-16T05:02:04;7.50;;;2.70;;
26040;SDS011;13816;53.628;9.950;2022-10-16T05:04:31;3.10;;;2.13;;
26040;SDS011;13816;53.628;9.950;2022-10-16T05:06:57;4.47;;;2.47;;
26040;SDS011;13816;53.628;9.950;2022-10-16T05:09:23;8.10;;;2.97;;
26040;SDS011;13816;53.628;9.950;2022-10-16T05:11:49;5.67;;;2.87;;
26040;SDS011;13816;53.628;9.950;2022-10-16T05:14:15;6.57;;;2.83;;
26040;SDS011;13816;53.628;9.950;2022-10-16T05:16:41;3.57;;;2.37;;
26040;SDS011;13816;53.628;9.950;2022-10-16T05:19:07;5.57;;;3.17;;
26040;SDS011;13816;53.628;9.950;2022-10-16T05:21:33;8.60;;;3.60;;
26040;SDS011;13816;53.628;9.950;2022-10-16T05:23:59;6.57;;;3.00;;
26040;SDS011;13816;53.628;9.950;2022-10-16T05:26:25;12.23;;;4.37;;
26040;SDS011;13816;53.628;9.950;2022-10-16T05:28:51;6.83;;;2.80;;
26040;SDS011;13816;53.628;9.950;2022-10-16T05:31:17;4.83;;;3.73;;
26040;SDS011;13816;53.628;9.950;2022-10-16T05:33:44;9.73;;;3.17;;
26040;SDS011;13816;53.628;9.950;2022-10-16T05:36:10;9.77;;;3.70;;
26040;SDS011;13816;53.628;9.950;2022-10-16T05:38:38;4.43;;;3.20;;
26040;SDS011;13816;53.628;9.950;2022-10-16T05:41:05;8.60;;;3.57;;
26040;SDS011;13816;53.628;9.950;2022-10-16T05:43:31;6.07;;;3.80;;
26040;SDS011;13816;53.628;9.950;2022-10-16T05:45:59;8.10;;;3.57;;
26040;SDS011;13816;53.628;9.950;2022-10-16T05:48:25;8.20;;;3.57;;
26040;SDS011;13816;53.628;9.950;2022-10-16T05:50:58;9.83;;;3.60;;
26040;SDS011;13816;53.628;9.950;2022-10-16T05:53:24;7.60;;;4.40;;
26040;SDS011;13816;53.628;9.950;2022-10-16T05:55:54;9.77;;;3.30;;
26040;SDS011;13816;53.628;9.950;2022-10-16T05:58:20;6.60;;;3.87;;
26040;SDS011;13816;53.628;9.950;2022-10-16T06:00:53;7.67;;;2.90;;
26040;SDS011;13816;53.628;9.950;2022-10-16T06:03:19;7.83;;;3.70;;
26040;SDS011;13816;53.628;9.950;2022-10-16T06:05:45;8.33;;;3.67;;
26040;SDS011;13816;53.628;9.950;2022-10-16T06:08:11;6.43;;;3.40;;
26040;SDS011;13816;53.628;9.950;2022-10-16T06:10:37;9.60;;;3.80;;
26040;SDS011;13816;53.628;9.950;2022-10-16T06:13:03;9.73;;;3.23;;
26040;SDS011;13816;53.628;9.950;2022-10-16T06:15:29;9.57;;;3.23;;
26040;SDS011;13816;53.628;9.950;2022-10-16T06:17:55;7.43;;;2.93;;
26040;SDS011;13816;53.628;9.950;2022-10-16T06:20:22;6.30;;;3.37;;
26040;SDS011;13816;53.628;9.950;2022-10-16T06:22:48;11.60;;;3.30;;
26040;SDS011;13816;53.628;9.950;2022-10-16T06:25:14;5.90;;;3.20;;
26040;SDS011;13816;53.628;9.950;2022-10-16T06:27:40;13.40;;;4.10;;
26040;SDS011;13816;53.628;9.950;2022-10-16T06:30:07;13.57;;;4.27;;
26040;SDS011;13816;53.628;9.950;2022-10-16T06:32:33;7.87;;;2.90;;
26040;SDS011;13816;53.628;9.950;2022-10-16T06:34:59;5.20;;;3.30;;
26040;SDS011;13816;53.628;9.950;2022-10-16T06:37:26;10.07;;;3.60;;
26040;SDS011;13816;53.628;9.950;2022-10-16T06:39:52;8.23;;;3.03;;
26040;SDS011;13816;53.628;9.950;2022-10-16T06:42:18;7.80;;;3.23;;
26040;SDS011;13816;53.628;9.950;2022-10-16T06:44:44;6.93;;;3.17;;
26040;SDS011;13816;53.628;9.950;2022-10-16T06:47:10;3.90;;;3.00;;
26040;SDS011;13816;53.628;9.950;2022-10-16T06:49:36;6.57;;;2.87;;
26040;SDS011;13816;53.628;9.950;2022-10-16T06:52:03;5.33;;;3.10;;
26040;SDS011;13816;53.628;9.950;2022-10-16T06:54:29;11.20;;;3.87;;
26040;SDS011;13816;53.628;9.950;2022-10-16T06:56:55;6.43;;;3.30;;
26040;SDS011;13816;53.628;9.950;2022-10-16T06:59:21;8.60;;;3.53;;
26040;SDS011;13816;53.628;9.950;2022-10-16T07:01:47;6.63;;;3.60;;
26040;SDS011;13816;53.628;9.950;2022-10-16T07:04:14;4.90;;;3.47;;
26040;SDS011;13816;53.628;9.950;2022-10-16T07:06:40;6.07;;;3.77;;
26040;SDS011;13816;53.628;9.950;2022-10-16T07:09:07;7.97;;;4.20;;
26040;SDS011;13816;53.628;9.950;2022-10-16T07:11:34;8.97;;;4.03;;
26040;SDS011;13816;53.628;9.950;2022-10-16T07:14:00;6.37;;;3.33;;
26040;SDS011;13816;53.628;9.950;2022-10-16T07:16:27;4.70;;;3.80;;
26040;SDS011;13816;53.628;9.950;2022-10-16T07:18:54;11.27;;;3.80;;
26040;SDS011;13816;53.628;9.950;2022-10-16T07:21:24;6.90;;;3.10;;
26040;SDS011;13816;53.628;9.950;2022-10-16T07:23:54;5.30;;;3.97;;
26040;SDS011;13816;53.628;9.950;2022-10-16T07:26:21;4.70;;;3.60;;
26040;SDS011;13816;53.628;9.950;2022-10-16T07:28:47;4.27;;;3.27;;
26040;SDS011;13816;53.628;9.950;2022-10-16T07:31:14;6.97;;;3.83;;
26040;SDS011;13816;53.628;9.950;2022-10-16T07:33:40;8.73;;;3.90;;
26040;SDS011;13816;53.628;9.950;2022-10-16T07:36:09;6.43;;;3.50;;
26040;SDS011;13816;53.628;9.950;2022-10-16T07:38:35;7.77;;;3.97;;
26040;SDS011;13816;53.628;9.950;2022-10-16T07:41:03;9.90;;;4.27;;
26040;SDS011;13816;53.628;9.950;2022-10-16T07:43:29;7.30;;;3.80;;
26040;SDS011;13816;53.628;9.950;2022-10-16T07:45:56;6.53;;;3.93;;
26040;SDS011;13816;53.628;9.950;2022-10-16T07:48:22;7.30;;;4.07;;
26040;SDS011;13816;53.628;9.950;2022-10-16T07:50:49;9.60;;;5.33;;
26040;SDS011;13816;53.628;9.950;2022-10-16T07:53:15;10.30;;;3.73;;
26040;SDS011;13816;53.628;9.950;2022-10-16T07:55:41;8.10;;;3.83;;
26040;SDS011;13816;53.628;9.950;2022-10-16T07:58:07;5.37;;;3.47;;
26040;SDS011;13816;53.628;9.950;2022-10-16T08:00:35;6.23;;;3.90;;
26040;SDS011;13816;53.628;9.950;2022-10-16T08:03:01;6.97;;;3.80;;
26040;SDS011;13816;53.628;9.950;2022-10-16T08:05:28;7.53;;;3.97;;
26040;SDS011;13816;53.628;9.950;2022-10-16T08:07:54;12.90;;;4.47;;
26040;SDS011;13816;53.628;9.950;2022-10-16T08:10:21;7.83;;;3.83;;
26040;SDS011;13816;53.628;9.950;2022-10-16T08:12:48;5.23;;;3.60;;
26040;SDS011;13816;53.628;9.950;2022-10-16T08:15:14;8.60;;;3.70;;
26040;SDS011;13816;53.628;9.950;2022-10-16T08:17:40;7.90;;;3.77;;
26040;SDS011;13816;53.628;9.950;2022-10-16T08:20:06;10.53;;;4.13;;
26040;SDS011;13816;53.628;9.950;2022-10-16T08:22:32;11.23;;;4.73;;
26040;SDS011;13816;53.628;9.950;2022-10-16T08:24:58;6.90;;;3.90;;
26040;SDS011;13816;53.628;9.950;2022-10-16T08:27:24;6.43;;;4.20;;
26040;SDS011;13816;53.628;9.950;2022-10-16T08:29:51;4.50;;;3.47;;
26040;SDS011;13816;53.628;9.950;2022-10-16T08:32:17;7.70;;;4.27;;
26040;SDS011;13816;53.628;9.950;2022-10-16T08:34:43;7.87;;;3.93;;
26040;SDS011;13816;53.628;9.950;2022-10-16T08:37:09;5.20;;;3.97;;
26040;SDS011;13816;53.628;9.950;2022-10-16T08:39:37;8.10;;;3.83;;
26040;SDS011;13816;53.628;9.950;2022-10-16T08:47:47;8.97;;;4.43;;
26040;SDS011;13816;53.628;9.950;2022-10-16T08:50:21;14.33;;;3.40;;
26040;SDS011;13816;53.628;9.950;2022-10-16T08:52:49;4.83;;;3.53;;
26040;SDS011;13816;53.628;9.950;2022-10-16T08:55:37;7.70;;;3.30;;
26040;SDS011;13816;53.628;9.950;2022-10-16T08:58:09;4.57;;;3.20;;
26040;SDS011;13816;53.628;9.950;2022-10-16T09:00:36;6.47;;;3.20;;
26040;SDS011;13816;53.628;9.950;2022-10-16T09:05:48;6.20;;;3.07;;
26040;SDS011;13816;53.628;9.950;2022-10-16T09:08:19;7.90;;;3.00;;
26040;SDS011;13816;53.628;9.950;2022-10-16T09:13:18;7.83;;;3.47;;
26040;SDS011;13816;53.628;9.950;2022-10-16T09:21:21;6.37;;;2.50;;
26040;SDS011;13816;53.628;9.950;2022-10-16T09:23:49;7.80;;;2.53;;
26040;SDS011;13816;53.628;9.950;2022-10-16T09:26:16;5.83;;;2.50;;
26040;SDS011;13816;53.628;9.950;2022-10-16T09:28:43;5.73;;;2.77;;
26040;SDS011;13816;53.628;9.950;2022-10-16T09:31:12;6.83;;;2.63;;
26040;SDS011;13816;53.628;9.950;2022-10-16T09:33:39;4.10;;;2.10;;
26040;SDS011;13816;53.628;9.950;2022-10-16T09:36:06;3.67;;;2.37;;
26040;SDS011;13816;53.628;9.950;2022-10-16T09:38:33;8.10;;;2.40;;
26040;SDS011;13816;53.628;9.950;2022-10-16T09:41:01;6.00;;;2.43;;
26040;SDS011;13816;53.628;9.950;2022-10-16T09:45:57;7.20;;;2.47;;
26040;SDS011;13816;53.628;9.950;2022-10-16T09:48:24;5.97;;;2.13;;
26040;SDS011;13816;53.628;9.950;2022-10-16T09:50:58;7.70;;;2.37;;
26040;SDS011;13816;53.628;9.950;2022-10-16T09:53:24;4.20;;;2.03;;
26040;SDS011;13816;53.628;9.950;2022-10-16T09:55:52;6.93;;;2.80;;
26040;SDS011;13816;53.628;9.950;2022-10-16T09:58:21;6.30;;;1.90;;
26040;SDS011;13816;53.628;9.950;2022-10-16T10:00:51;6.67;;;2.67;;
26040;SDS011;13816;53.628;9.950;2022-10-16T10:03:33;8.80;;;2.30;;
26040;SDS011;13816;53.628;9.950;2022-10-16T10:06:01;9.70;;;2.80;;
26040;SDS011;13816;53.628;9.950;2022-10-16T10:08:29;4.70;;;1.80;;
26040;SDS011;13816;53.628;9.950;2022-10-16T10:10:55;5.50;;;1.93;;
26040;SDS011;13816;53.628;9.950;2022-10-16T10:13:22;5.20;;;1.90;;
26040;SDS011;13816;53.628;9.950;2022-10-16T10:15:50;4.47;;;2.23;;
26040;SDS011;13816;53.628;9.950;2022-10-16T10:18:17;4.67;;;2.20;;
26040;SDS011;13816;53.628;9.950;2022-10-16T10:20:45;6.23;;;2.00;;
26040;SDS011;13816;53.628;9.950;2022-10-16T10:23:21;5.87;;;2.07;;
26040;SDS011;13816;53.628;9.950;2022-10-16T10:31:03;7.70;;;1.73;;
26040;SDS011;13816;53.628;9.950;2022-10-16T10:36:16;6.77;;;2.40;;
26040;SDS011;13816;53.628;9.950;2022-10-16T10:43:50;16.20;;;2.10;;
26040;SDS011;13816;53.628;9.950;2022-10-16T10:49:15;6.10;;;2.20;;
26040;SDS011;13816;53.628;9.950;2022-10-16T11:02:10;3.83;;;1.70;;
26040;SDS011;13816;53.628;9.950;2022-10-16T11:07:21;4.90;;;1.97;;
26040;SDS011;13816;53.628;9.950;2022-10-16T11:09:51;7.13;;;3.07;;
26040;SDS011;13816;53.628;9.950;2022-10-16T11:12:38;9.13;;;2.40;;
26040;SDS011;13816;53.628;9.950;2022-10-16T11:15:14;9.43;;;1.97;;
26040;SDS011;13816;53.628;9.950;2022-10-16T11:17:42;3.87;;;1.40;;
26040;SDS011;13816;53.628;9.950;2022-10-16T11:20:16;6.10;;;2.43;;
26040;SDS011;13816;53.628;9.950;2022-10-16T11:22:54;3.50;;;1.57;;
26040;SDS011;13816;53.628;9.950;2022-10-16T11:25:26;6.63;;;1.50;;
26040;SDS011;13816;53.628;9.950;2022-10-16T11:30:28;8.67;;;1.77;;
26040;SDS011;13816;53.628;9.950;2022-10-16T11:35:32;9.23;;;1.37;;
26040;SDS011;13816;53.628;9.950;2022-10-16T11:38:00;3.23;;;1.23;;
26040;SDS011;13816;53.628;9.950;2022-10-16T11:40:29;8.37;;;1.57;;
26040;SDS011;13816;53.628;9.950;2022-10-16T11:43:01;5.10;;;1.60;;
26040;SDS011;13816;53.628;9.950;2022-10-16T11:45:33;4.73;;;1.40;;
26040;SDS011;13816;53.628;9.950;2022-10-16T11:48:02;5.73;;;1.30;;
26040;SDS011;13816;53.628;9.950;2022-10-16T11:55:44;3.03;;;1.60;;
26040;SDS011;13816;53.628;9.950;2022-10-16T11:58:30;4.00;;;1.60;;
26040;SDS011;13816;53.628;9.950;2022-10-16T12:08:36;5.47;;;1.90;;
26040;SDS011;13816;53.628;9.950;2022-10-16T12:11:07;6.47;;;1.40;;
26040;SDS011;13816;53.628;9.950;2022-10-16T12:13:37;9.60;;;1.97;;
26040;SDS011;13816;53.628;9.950;2022-10-16T12:16:04;4.30;;;1.57;;
26040;SDS011;13816;53.628;9.950;2022-10-16T12:18:31;7.83;;;1.73;;
26040;SDS011;13816;53.628;9.950;2022-10-16T12:20:57;5.40;;;1.57;;
26040;SDS011;13816;53.628;9.950;2022-10-16T12:23:24;4.30;;;1.03;;
26040;SDS011;13816;53.628;9.950;2022-10-16T12:25:57;3.90;;;1.60;;
26040;SDS011;13816;53.628;9.950;2022-10-16T12:28:27;5.83;;;1.47;;
26040;SDS011;13816;53.628;9.950;2022-10-16T12:30:58;4.87;;;1.60;;
26040;SDS011;13816;53.628;9.950;2022-10-16T12:33:31;5.87;;;1.63;;
26040;SDS011;13816;53.628;9.950;2022-10-16T12:35:59;5.53;;;1.57;;
26040;SDS011;13816;53.628;9.950;2022-10-16T12:38:28;13.20;;;2.60;;
26040;SDS011;13816;53.628;9.950;2022-10-16T12:43:25;7.03;;;2.00;;
26040;SDS011;13816;53.628;9.950;2022-10-16T12:45:59;4.22;;;1.60;;
26040;SDS011;13816;53.628;9.950;2022-10-16T12:48:25;9.63;;;1.87;;
26040;SDS011;13816;53.628;9.950;2022-10-16T12:50:51;6.13;;;2.00;;
26040;SDS011;13816;53.628;9.950;2022-10-16T12:53:18;6.93;;;1.63;;
26040;SDS011;13816;53.628;9.950;2022-10-16T12:55:49;6.13;;;1.80;;
26040;SDS011;13816;53.628;9.950;2022-10-16T13:23:48;6.93;;;1.70;;
26040;SDS011;13816;53.628;9.950;2022-10-16T13:26:28;4.27;;;1.50;;
26040;SDS011;13816;53.628;9.950;2022-10-16T13:29:00;6.00;;;2.00;;
26040;SDS011;13816;53.628;9.950;2022-10-16T13:31:26;5.83;;;1.70;;
26040;SDS011;13816;53.628;9.950;2022-10-16T13:34:04;7.70;;;1.77;;
26040;SDS011;13816;53.628;9.950;2022-10-16T13:36:47;6.67;;;1.60;;
26040;SDS011;13816;53.628;9.950;2022-10-16T13:41:46;5.90;;;2.00;;
26040;SDS011;13816;53.628;9.950;2022-10-16T13:44:14;6.17;;;1.63;;
26040;SDS011;13816;53.628;9.950;2022-10-16T13:46:47;7.97;;;1.70;;
26040;SDS011;13816;53.628;9.950;2022-10-16T13:49:27;11.77;;;2.40;;
26040;SDS011;13816;53.628;9.950;2022-10-16T13:52:20;5.57;;;1.50;;
26040;SDS011;13816;53.628;9.950;2022-10-16T13:57:48;5.20;;;1.60;;
26040;SDS011;13816;53.628;9.950;2022-10-16T14:00:20;6.67;;;2.00;;
26040;SDS011;13816;53.628;9.950;2022-10-16T14:02:51;8.07;;;1.90;;
26040;SDS011;13816;53.628;9.950;2022-10-16T14:05:21;7.30;;;2.13;;
26040;SDS011;13816;53.628;9.950;2022-10-16T14:07:57;4.93;;;1.40;;
26040;SDS011;13816;53.628;9.950;2022-10-16T14:10:27;5.77;;;1.93;;
26040;SDS011;13816;53.628;9.950;2022-10-16T14:12:58;5.10;;;1.43;;
26040;SDS011;13816;53.628;9.950;2022-10-16T14:15:25;6.50;;;2.03;;
26040;SDS011;13816;53.628;9.950;2022-10-16T14:17:51;11.73;;;1.90;;
26040;SDS011;13816;53.628;9.950;2022-10-16T14:20:18;5.93;;;1.63;;
26040;SDS011;13816;53.628;9.950;2022-10-16T14:22:45;4.60;;;1.60;;
26040;SDS011;13816;53.628;9.950;2022-10-16T14:30:25;6.13;;;1.47;;
26040;SDS011;13816;53.628;9.950;2022-10-16T14:32:56;7.83;;;2.00;;
26040;SDS011;13816;53.628;9.950;2022-10-16T14:38:22;9.03;;;2.23;;
26040;SDS011;13816;53.628;9.950;2022-10-16T14:40:48;5.00;;;1.43;;
26040;SDS011;13816;53.628;9.950;2022-10-16T14:43:22;5.13;;;1.60;;
26040;SDS011;13816;53.628;9.950;2022-10-16T14:45:52;11.57;;;2.00;;
26040;SDS011;13816;53.628;9.950;2022-10-16T14:48:18;4.40;;;1.60;;
26040;SDS011;13816;53.628;9.950;2022-10-16T14:50:54;6.87;;;2.00;;
26040;SDS011;13816;53.628;9.950;2022-10-16T14:53:32;6.53;;;1.47;;
26040;SDS011;13816;53.628;9.950;2022-10-16T14:56:05;10.73;;;1.50;;
26040;SDS011;13816;53.628;9.950;2022-10-16T14:58:42;5.33;;;1.70;;
26040;SDS011;13816;53.628;9.950;2022-10-16T15:01:11;5.03;;;1.60;;
26040;SDS011;13816;53.628;9.950;2022-10-16T15:03:37;4.73;;;1.77;;
26040;SDS011;13816;53.628;9.950;2022-10-16T15:06:04;5.90;;;1.67;;
26040;SDS011;13816;53.628;9.950;2022-10-16T15:08:35;5.87;;;1.87;;
26040;SDS011;13816;53.628;9.950;2022-10-16T15:11:01;9.93;;;2.17;;
26040;SDS011;13816;53.628;9.950;2022-10-16T15:13:27;11.27;;;2.03;;
26040;SDS011;13816;53.628;9.950;2022-10-16T15:15:56;5.97;;;1.40;;
26040;SDS011;13816;53.628;9.950;2022-10-16T15:18:23;8.93;;;1.97;;
26040;SDS011;13816;53.628;9.950;2022-10-16T15:20:50;15.83;;;2.83;;
26040;SDS011;13816;53.628;9.950;2022-10-16T15:23:25;6.60;;;1.73;;
26040;SDS011;13816;53.628;9.950;2022-10-16T15:25:54;7.93;;;2.10;;
26040;SDS011;13816;53.628;9.950;2022-10-16T15:28:21;6.70;;;2.27;;
26040;SDS011;13816;53.628;9.950;2022-10-16T15:30:51;5.47;;;2.10;;
26040;SDS011;13816;53.628;9.950;2022-10-16T15:33:19;14.43;;;2.30;;
26040;SDS011;13816;53.628;9.950;2022-10-16T15:35:46;8.43;;;1.90;;
26040;SDS011;13816;53.628;9.950;2022-10-16T15:38:13;4.90;;;1.80;;
26040;SDS011;13816;53.628;9.950;2022-10-16T15:40:40;7.05;;;2.30;;
26040;SDS011;13816;53.628;9.950;2022-10-16T15:43:09;7.17;;;1.80;;
26040;SDS011;13816;53.628;9.950;2022-10-16T15:45:36;7.90;;;1.97;;
26040;SDS011;13816;53.628;9.950;2022-10-16T15:48:05;6.23;;;1.93;;
26040;SDS011;13816;53.628;9.950;2022-10-16T15:50:35;7.73;;;2.03;;
26040;SDS011;13816;53.628;9.950;2022-10-16T15:53:09;7.30;;;2.27;;
26040;SDS011;13816;53.628;9.950;2022-10-16T15:55:37;11.20;;;2.90;;
26040;SDS011;13816;53.628;9.950;2022-10-16T15:58:04;11.23;;;1.80;;
26040;SDS011;13816;53.628;9.950;2022-10-16T16:00:30;10.73;;;2.10;;
26040;SDS011;13816;53.628;9.950;2022-10-16T16:02:56;7.30;;;2.20;;
26040;SDS011;13816;53.628;9.950;2022-10-16T16:05:22;10.87;;;2.27;;
26040;SDS011;13816;53.628;9.950;2022-10-16T16:07:49;11.13;;;2.57;;
26040;SDS011;13816;53.628;9.950;2022-10-16T16:10:16;8.20;;;2.00;;
26040;SDS011;13816;53.628;9.950;2022-10-16T16:12:42;7.80;;;1.93;;
26040;SDS011;13816;53.628;9.950;2022-10-16T16:15:09;18.63;;;3.13;;
26040;SDS011;13816;53.628;9.950;2022-10-16T16:17:35;10.37;;;2.10;;
26040;SDS011;13816;53.628;9.950;2022-10-16T16:20:02;6.40;;;1.67;;
26040;SDS011;13816;53.628;9.950;2022-10-16T16:22:29;13.30;;;2.50;;
26040;SDS011;13816;53.628;9.950;2022-10-16T16:24:55;10.40;;;2.27;;
26040;SDS011;13816;53.628;9.950;2022-10-16T16:27:21;10.43;;;2.93;;
26040;SDS011;13816;53.628;9.950;2022-10-16T16:29:49;7.60;;;2.97;;
26040;SDS011;13816;53.628;9.950;2022-10-16T16:32:15;10.37;;;2.60;;
26040;SDS011;13816;53.628;9.950;2022-10-16T16:34:45;10.50;;;3.40;;
26040;SDS011;13816;53.628;9.950;2022-10-16T16:37:11;6.97;;;2.63;;
26040;SDS011;13816;53.628;9.950;2022-10-16T16:39:37;6.53;;;2.63;;
26040;SDS011;13816;53.628;9.950;2022-10-16T16:42:03;9.73;;;3.10;;
26040;SDS011;13816;53.628;9.950;2022-10-16T16:44:31;13.30;;;3.07;;
26040;SDS011;13816;53.628;9.950;2022-10-16T16:46:57;15.50;;;3.53;;